Latest Weather Observations for Roxby Downs

IDS60801

Issued at 8:01 pm CST Monday 3 August 2015 (issued every 30 minutes, with the page automatically refreshed every 10 minutes)

About weather observations | Map of weather stations | Latest weather observations for SA | Other Formats
Station Details ID: 016096 Name: OLYMPIC DAM AERODROME Lat: -30.48 Lon: 136.88 Height: 98.5 m
Data from the previous 72 hours. | See also: Recent months at Roxby Downs
Date/Time
CST
Temp
°C
App
Temp
°C
Dew
Point
Rel
Hum
%
Delta-T
°C
Wind Press
QNH
hPa
Press
MSL
hPa
Rain
since 9 am
mm
Dir
 
Spd
km/h
Gust
km/h
Spd
kts
Gust
kts
03/08:00pm 15.6 10.9 3.4 44 5.6 SW 17 24 9 13 1028.0 1028.0 0.0
03/07:30pm 15.7 11.2 4.1 46 5.4 SSW 17 22 9 12 1027.8 1027.8 0.0
03/07:00pm 15.8 10.4 4.5 47 5.3 SW 22 32 12 17 1027.6 1027.6 0.0
03/06:30pm 15.7 10.7 3.5 44 5.6 SW 19 28 10 15 1027.4 1027.4 0.0
03/06:00pm 15.9 10.0 3.7 44 5.6 SW 24 30 13 16 1027.3 1027.3 0.0
03/05:30pm 16.1 11.2 4.2 45 5.5 SW 19 28 10 15 1027.2 1027.2 0.0
03/05:00pm 16.1 10.3 4.5 46 5.5 SW 24 33 13 18 1027.1 1027.1 0.0
03/04:30pm 16.6 11.2 4.6 45 5.7 SSW 22 32 12 17 1026.9 1026.9 0.0
03/04:00pm 16.5 11.1 4.5 45 5.7 SSW 22 30 12 16 1026.9 1026.9 0.0
03/03:30pm 17.0 11.5 4.0 42 6.1 SSW 22 32 12 17 1026.8 1026.8 0.0
03/03:00pm 17.1 12.2 4.1 42 6.1 SW 19 30 10 16 1026.8 1026.8 0.0
03/02:30pm 17.5 12.1 4.5 42 6.2 SSW 22 35 12 19 1027.0 1027.0 0.0
03/02:00pm 17.5 12.6 4.1 41 6.3 SSW 19 30 10 16 1027.1 1027.1 0.0
03/01:30pm 16.3 10.6 4.7 46 5.5 SSW 24 32 13 17 1027.6 1027.6 0.0
03/01:00pm 16.4 11.2 5.7 49 5.2 SSW 22 30 12 16 1027.9 1027.9 0.0
03/12:30pm 15.6 11.1 6.1 53 4.6 SSW 19 30 10 16 1028.4 1028.4 0.0
03/12:00pm 15.3 10.2 6.1 54 4.4 SSW 22 30 12 16 1028.9 1028.9 0.0
03/11:30am 14.9 9.5 6.5 57 4.1 SSW 24 35 13 19 1029.2 1029.2 0.0
03/11:00am 14.5 9.6 6.8 60 3.8 S 22 32 12 17 1029.4 1029.4 0.0
03/10:30am 13.8 9.6 7.3 65 3.2 SSW 19 26 10 14 1029.7 1029.7 0.0
03/10:00am 12.4 8.2 7.5 72 2.4 SSW 19 24 10 13 1029.8 1029.8 0.0
03/09:30am 11.0 7.2 7.5 79 1.7 SW 17 20 9 11 1029.6 1029.6 0.0
03/09:00am 9.8 5.6 7.4 85 1.1 SW 19 28 10 15 1029.4 1029.4 0.0
03/08:30am 8.5 5.0 7.0 90 0.7 SW 15 20 8 11 1029.0 1029.0 0.0
03/08:00am 7.2 3.9 6.5 95 0.3 SW 13 17 7 9 1028.8 1028.8 0.0
03/07:30am 5.4 2.1 4.8 96 0.3 WSW 11 13 6 7 1028.6 1028.6 0.0
03/07:00am 4.5 1.1 3.9 96 0.3 WSW 11 13 6 7 1028.3 1028.3 0.0
03/06:30am 4.3 1.2 3.4 94 0.4 W 9 11 5 6 1027.9 1027.9 0.0
03/06:00am 5.0 2.0 4.1 94 0.4 WSW 9 13 5 7 1027.6 1027.6 0.0
03/05:30am 5.5 2.6 4.6 94 0.4 WSW 9 13 5 7 1027.4 1027.4 0.0
03/05:00am 5.8 2.9 4.6 92 0.5 WSW 9 13 5 7 1027.4 1027.4 0.0
03/04:30am 6.5 3.3 5.1 91 0.6 WSW 11 13 6 7 1027.3 1027.3 0.0
03/04:00am 6.9 3.3 5.2 89 0.8 WSW 13 15 7 8 1027.4 1027.4 0.0
03/03:30am 7.2 3.7 5.3 88 0.8 WSW 13 15 7 8 1027.5 1027.5 0.0
03/03:00am 7.6 4.1 5.6 87 0.9 WSW 13 13 7 7 1027.5 1027.5 0.0
03/02:30am 8.3 4.9 5.8 84 1.1 SW 13 15 7 8 1027.7 1027.7 0.0
03/02:00am 9.1 5.7 6.0 81 1.4 SW 13 17 7 9 1027.6 1027.6 0.0
03/01:30am 9.6 5.8 6.0 78 1.7 SW 15 22 8 12 1027.6 1027.6 0.0
03/01:00am 10.1 5.9 5.9 75 1.9 SW 17 20 9 11 1027.5 1027.5 0.0
03/12:30am 10.4 6.1 5.4 71 2.3 SW 17 22 9 12 1027.6 1027.6 0.0
03/12:00am 10.8 6.4 4.7 66 2.7 SW 17 22 9 12 1027.4 1027.4 0.0
 
Date/Time
CST
Temp
°C
App
Temp
°C
Dew
Point
Rel
Hum
%
Delta-T
°C
Wind Press
QNH
hPa
Press
MSL
hPa
Rain
since 9 am
mm
Dir
 
Spd
km/h
Gust
km/h
Spd
kts
Gust
kts
02/11:30pm 11.6 6.8 4.8 63 3.1 SSW 19 24 10 13 1027.2 1027.2 0.0
02/11:00pm 10.8 6.8 3.1 59 3.4 SW 13 17 7 9 1027.1 1027.1 0.0
02/10:30pm 11.2 7.3 3.3 58 3.5 SW 13 17 7 9 1027.2 1027.2 0.0
02/10:00pm 11.2 7.6 2.8 56 3.7 SW 11 11 6 6 1027.2 1027.2 0.0
02/09:30pm 11.3 8.1 2.9 56 3.6 SW 9 11 5 6 1027.0 1027.0 0.0
02/09:00pm 11.0 7.7 2.3 55 3.7 WSW 9 11 5 6 1026.8 1026.8 0.0
02/08:30pm 11.3 8.0 2.6 55 3.8 SW 9 13 5 7 1026.5 1026.5 0.0
02/08:00pm 11.0 7.6 2.1 54 3.8 SSW 9 11 5 6 1026.1 1026.2 0.0
02/07:30pm 11.8 8.0 2.0 51 4.2 SW 11 13 6 7 1025.8 1025.9 0.0
02/07:00pm 12.9 8.7 1.9 47 4.8 SW 13 17 7 9 1025.4 1025.5 0.0
02/06:30pm 13.6 9.1 1.9 45 5.1 SSW 15 20 8 11 1025.1 1025.2 0.0
02/06:00pm 14.3 8.1 1.9 43 5.4 SSW 24 33 13 18 1024.7 1024.8 0.0
02/05:30pm 15.0 9.6 2.5 43 5.6 SSW 20 30 11 16 1024.4 1024.5 0.0
02/05:00pm 15.6 9.1 2.4 41 5.9 SW 26 39 14 21 1023.9 1024.0 0.0
02/04:30pm 15.9 9.3 2.0 39 6.2 SSW 26 33 14 18 1023.6 1023.6 0.0
02/04:00pm 16.4 9.5 2.4 39 6.3 SSW 28 39 15 21 1023.5 1023.5 0.0
02/03:30pm 16.3 9.2 1.6 37 6.5 SSW 28 35 15 19 1023.5 1023.5 0.0
02/03:00pm 16.3 9.2 1.2 36 6.6 SSW 28 35 15 19 1023.0 1023.0 0.0
02/02:30pm 16.7 9.1 0.8 34 6.9 SSW 30 35 16 19 1023.0 1023.0 0.0
02/02:00pm 16.4 9.2 0.9 35 6.8 SSW 28 41 15 22 1022.9 1022.9 0.0
02/01:30pm 15.8 8.7 1.2 37 6.4 SSW 28 37 15 20 1023.1 1023.1 0.0
02/01:00pm 15.4 7.6 1.5 39 6.1 SSW 32 43 17 23 1023.3 1023.3 0.0
02/12:30pm 14.4 6.3 1.3 41 5.7 S 33 52 18 28 1023.8 1023.8 0.0
02/12:25pm 15.2 7.4 1.4 39 6.0 SSW 32 52 17 28 1023.7 1023.7 0.0
02/12:00pm 14.3 6.5 1.9 43 5.4 S 32 43 17 23 1024.1 1024.2 0.0
02/11:30am 14.6 7.0 2.8 45 5.3 S 32 46 17 25 1024.1 1024.2 0.0
02/11:00am 13.3 5.1 2.5 48 4.8 S 35 46 19 25 1024.2 1024.3 0.0
02/10:30am 12.9 4.7 2.7 50 4.5 S 35 48 19 26 1024.1 1024.2 0.0
02/10:00am 12.1 4.4 3.6 56 3.8 S 33 46 18 25 1024.0 1024.1 0.0
02/09:52am 12.1 5.4 3.9 57 3.7 S 28 46 15 25 1023.9 1024.0 0.0
02/09:30am 11.6 5.5 4.6 62 3.2 S 26 37 14 20 1023.5 1023.5 0.0
02/09:00am 10.3 3.8 4.9 69 2.4 S 28 39 15 21 1022.9 1022.9 0.0
02/08:30am 9.5 3.5 5.1 74 2.0 SSW 26 33 14 18 1022.7 1022.7 0.0
02/08:00am 8.7 3.8 4.9 77 1.7 SSW 20 28 11 15 1022.2 1022.2 0.0
02/07:30am 8.3 3.5 4.9 79 1.5 SSW 19 24 10 13 1021.7 1021.7 0.0
02/07:00am 8.4 2.7 4.8 78 1.6 SSW 24 33 13 18 1021.0 1021.0 0.0
02/06:30am 8.7 2.2 4.7 76 1.8 SSW 28 35 15 19 1020.1 1020.1 0.0
02/06:00am 9.0 3.3 4.8 75 1.9 SSW 24 33 13 18 1019.9 1019.9 0.0
02/05:30am 9.4 3.7 5.0 74 2.0 SSW 24 33 13 18 1019.5 1019.5 0.0
02/05:00am 9.6 3.6 5.4 75 1.9 SSW 26 35 14 19 1019.1 1019.1 0.0
02/04:30am 9.9 5.1 5.7 75 1.9 SSW 20 30 11 16 1018.6 1018.6 0.0
02/04:00am 10.5 5.5 6.3 75 2.0 SSW 22 30 12 16 1018.4 1018.4 0.0
02/03:30am 10.9 5.9 6.6 75 2.0 SSW 22 30 12 16 1018.1 1018.1 0.0
02/03:00am 11.4 6.8 6.7 73 2.2 S 20 30 11 16 1017.1 1017.1 0.0
02/02:30am 11.5 6.4 6.2 70 2.5 S 22 30 12 16 1017.3 1017.3 0.0
02/02:00am 11.9 5.7 6.0 67 2.8 S 28 35 15 19 1017.2 1017.2 0.0
02/01:30am 12.2 5.9 5.6 64 3.1 S 28 37 15 20 1016.7 1016.7 0.0
02/01:00am 12.4 6.0 5.3 62 3.3 S 28 41 15 22 1016.6 1016.6 0.0
02/12:30am 12.5 6.1 5.4 62 3.3 SSW 28 39 15 21 1016.7 1016.7 0.0
02/12:00am 12.6 7.0 5.3 61 3.4 S 24 33 13 18 1016.2 1016.2 0.0
 
Date/Time
CST
Temp
°C
App
Temp
°C
Dew
Point
Rel
Hum
%
Delta-T
°C
Wind Press
QNH
hPa
Press
MSL
hPa
Rain
since 9 am
mm
Dir
 
Spd
km/h
Gust
km/h
Spd
kts
Gust
kts
01/11:30pm 12.7 6.0 5.6 62 3.3 S 30 43 16 23 1016.1 1016.1 0.0
01/11:00pm 12.5 5.9 6.1 65 3.0 S 30 41 16 22 1015.6 1015.7 0.0
01/10:44pm 12.6 6.6 6.9 68 2.8 S 28 46 15 25 1015.7 1015.8 0.0
01/10:30pm 12.9 6.0 7.4 69 2.7 S 33 43 18 23 1015.5 1015.6 0.0
01/10:17pm 13.2 5.9 7.4 68 2.8 SSW 35 54 19 29 1015.3 1015.3 0.0
01/10:00pm 13.6 7.0 7.8 68 2.9 SSW 32 43 17 23 1015.2 1015.2 0.0
01/09:30pm 14.4 7.8 7.9 65 3.2 SSW 32 41 17 22 1014.6 1014.6 0.0
01/09:00pm 15.7 10.9 8.7 63 3.6 S 24 33 13 18 1013.7 1013.7 0.0
01/08:30pm 16.9 12.6 7.8 55 4.6 S 20 26 11 14 1012.9 1012.9 0.0
01/08:00pm 17.8 14.3 7.0 49 5.4 S 15 20 8 11 1012.9 1012.9 0.0
01/07:30pm 18.7 14.4 6.9 46 6.0 SSE 19 24 10 13 1012.3 1012.3 0.0
01/07:00pm 20.1 13.9 6.1 40 7.0 S 28 37 15 20 1012.0 1012.0 0.0
01/06:30pm 22.7 16.7 -1.4 20 10.7 SSW 20 26 11 14 1011.5 1011.5 0.0
01/06:00pm 25.1 20.8 -5.2 13 12.7 SW 9 13 5 7 1010.6 1010.6 0.0
01/05:30pm 28.1 22.1 -6.3 10 14.6 NW 17 24 9 13 1010.2 1010.2 0.0
01/05:00pm 29.4 22.1 -6.7 9 15.3 NW 24 33 13 18 1009.9 1009.9 0.0
01/04:30pm 30.4 22.6 -7.5 8 16.0 NW 26 33 14 18 1009.8 1009.8 0.0
01/04:00pm 29.9 21.7 -7.9 8 15.8 NNW 28 43 15 23 1009.8 1009.8 0.0
01/03:30pm 30.0 21.4 -7.8 8 15.8 NNW 30 44 16 24 1009.9 1009.9 0.0
01/03:00pm 30.1 22.8 -6.2 9 15.7 N 24 41 13 22 1010.0 1010.0 0.0
01/02:30pm 30.0 21.9 -6.3 9 15.6 NNW 28 37 15 20 1010.5 1010.5 0.0
01/02:00pm 29.2 21.5 -6.9 9 15.2 NNW 26 39 14 21 1010.9 1010.9 0.0
01/01:30pm 28.9 20.6 -8.6 8 15.3 N 28 43 15 23 1011.5 1011.5 0.0
01/01:00pm 28.6 21.1 -8.8 8 15.2 NNW 24 37 13 20 1012.1 1012.1 0.0
01/12:30pm 27.0 19.1 -8.5 9 14.3 N 26 35 14 19 1013.0 1013.0 0.0
01/12:00pm 26.0 18.4 -9.3 9 13.8 N 24 33 13 18 1013.8 1013.8 0.0
01/11:30am 24.6 17.4 -9.0 10 13.1 NNW 22 33 12 18 1014.4 1014.4 0.0
01/11:00am 23.1 16.9 -8.9 11 12.3 NNW 17 24 9 13 1015.1 1015.1 0.0
01/10:30am 22.0 15.3 -7.6 13 11.5 N 20 28 11 15 1015.1 1015.1 0.0
01/10:00am 20.8 15.2 -6.7 15 10.8 NNW 15 20 8 11 1015.3 1015.3 0.0
01/09:30am 19.6 15.3 -5.3 18 9.9 N 9 11 5 6 1015.5 1015.6 0.0
01/09:00am 19.1 15.7 -5.0 19 9.6 NE 4 11 2 6 1015.5 1015.6 0.0
01/08:30am 18.5 15.9 -4.9 20 9.3 CALM 0 0 0 0 1015.5 1015.6 0.0
01/08:00am 15.0 11.3 -4.3 26 7.5 S 6 9 3 5 1015.5 1015.6 0.0
01/07:30am 13.9 9.9 -5.3 26 7.2 SW 7 11 4 6 1015.0 1015.1 0.0
01/07:00am 15.6 11.2 -5.4 23 8.0 SW 9 20 5 11 1015.1 1015.2 0.0
01/06:30am 14.7 9.9 -5.6 24 7.6 NW 11 19 6 10 1014.0 1014.1 0.0
01/06:00am 15.1 9.2 -5.3 24 7.7 N 17 20 9 11 1013.6 1013.7 0.0
01/05:30am 15.3 9.5 -5.1 24 7.8 N 17 22 9 12 1013.5 1013.6 0.0
01/05:00am 15.6 9.8 -4.9 24 7.9 N 17 22 9 12 1013.6 1013.7 0.0
01/04:30am 15.2 9.8 -4.7 25 7.6 N 15 22 8 12 1013.6 1013.7 0.0
01/04:00am 15.0 9.6 -4.8 25 7.6 N 15 20 8 11 1013.6 1013.7 0.0
01/03:30am 15.3 9.8 -5.1 24 7.8 N 15 17 8 9 1013.8 1013.9 0.0
01/03:00am 16.0 10.2 -4.5 24 8.0 N 17 20 9 11 1014.0 1014.1 0.0
01/02:30am 16.2 10.0 -4.9 23 8.1 N 19 24 10 13 1014.3 1014.4 0.0
01/02:00am 16.8 10.0 -5.0 22 8.5 N 22 30 12 16 1014.5 1014.6 0.0
01/01:30am 16.9 10.1 -4.9 22 8.5 N 22 30 12 16 1014.7 1014.8 0.0
01/01:00am 17.6 10.1 -5.0 21 8.8 N 26 35 14 19 1014.9 1015.0 0.0
01/12:30am 17.8 9.9 -4.8 21 8.9 N 28 37 15 20 1014.8 1014.9 0.0
01/12:00am 18.0 10.0 -5.3 20 9.1 N 28 35 15 19 1015.1 1015.2 0.0
 
Date/Time
CST
Temp
°C
App
Temp
°C
Dew
Point
Rel
Hum
%
Delta-T
°C
Wind Press
QNH
hPa
Press
MSL
hPa
Rain
since 9 am
mm
Dir
 
Spd
km/h
Gust
km/h
Spd
kts
Gust
kts
31/11:30pm 18.0 10.4 -5.3 20 9.1 N 26 35 14 19 1015.3 1015.4 0.0
31/11:00pm 17.8 10.7 -4.8 21 8.9 N 24 35 13 19 1015.7 1015.8 0.0
31/10:30pm 18.0 10.9 -4.6 21 8.9 N 24 33 13 18 1016.0 1016.0 0.0
31/10:00pm 18.4 11.2 -4.9 20 9.2 N 24 33 13 18 1016.2 1016.2 0.0
31/09:30pm 18.8 11.6 -5.3 19 9.5 N 24 32 13 17 1016.3 1016.3 0.0
31/09:00pm 18.6 12.3 -5.4 19 9.4 NNE 19 24 10 13 1016.3 1016.3 0.0
31/08:30pm 18.9 13.0 -5.9 18 9.6 NNE 17 24 9 13 1016.4 1016.4 0.0

Other Formats:

Comma delimited format used in spreadsheet applications
http://www.bom.gov.au/fwo/IDS60801/IDS60801.95658.axf

JavaScript Object Notation format (JSON) in row-major order
http://www.bom.gov.au/fwo/IDS60801/IDS60801.95658.json